Time;durP1;ratioP1;P1;durP2;ratioP2;P2;SDS_P1;SDS_P2;PMS_P1;PMS_P2;Temp;Humidity;BMP_temperature;BMP_pressure;BME280_temperature;BME280_humidity;BME280_pressure;Samples;Min_cycle;Max_cycle;Signal;HPM_P1;HPM_P2
2023/07/14 00:00:56;;;;;;;8.35;3.33;;;16.50;99.90;;;;;;5081868;28;20041;-52
2023/07/14 00:03:23;;;;;;;8.88;3.70;;;16.50;99.90;;;;;;5084978;28;20052;-52
2023/07/14 00:05:50;;;;;;;8.95;3.35;;;16.50;99.90;;;;;;5045666;28;20056;-53
2023/07/14 00:08:17;;;;;;;10.27;3.45;;;16.40;99.90;;;;;;5058319;28;20052;-53
2023/07/14 00:10:44;;;;;;;7.95;3.47;;;16.40;99.90;;;;;;5067730;28;20127;-49
2023/07/14 00:13:19;;;;;;;9.43;3.63;;;16.40;99.90;;;;;;5071417;28;20116;-54
2023/07/14 00:15:46;;;;;;;8.82;3.53;;;16.40;99.90;;;;;;5069429;28;21316;-53
2023/07/14 00:18:13;;;;;;;8.02;3.30;;;16.40;99.90;;;;;;5070882;28;20063;-50
2023/07/14 00:20:43;;;;;;;7.80;3.40;;;16.40;99.90;;;;;;5057403;28;20075;-53
2023/07/14 00:23:14;;;;;;;21.85;3.70;;;16.40;99.90;;;;;;5055664;28;20068;-56
2023/07/14 00:25:51;;;;;;;;;;;;;;;;;;;;;
2023/07/14 00:28:18;;;;;;;7.47;3.28;;;16.50;99.90;;;;;;5056345;28;20071;-59
2023/07/14 00:30:45;;;;;;;7.90;3.20;;;16.50;99.90;;;;;;5074321;28;20036;-58
2023/07/14 00:33:13;;;;;;;9.10;3.50;;;16.50;99.90;;;;;;5071485;28;20382;-58
2023/07/14 00:35:43;;;;;;;8.43;3.28;;;16.40;99.90;;;;;;5070523;28;20438;-56
2023/07/14 00:38:10;;;;;;;14.10;3.35;;;16.40;99.90;;;;;;5075999;28;20403;-56
2023/07/14 00:40:43;;;;;;;10.45;3.67;;;16.40;99.90;;;;;;5048243;28;20048;-55
2023/07/14 00:46:40;;;;;;;11.80;4.15;;;16.40;99.90;;;;;;5005727;28;20033;-58
2023/07/14 00:49:07;;;;;;;11.60;3.72;;;16.30;99.90;;;;;;4998467;28;20083;-53
2023/07/14 00:51:34;;;;;;;12.48;4.18;;;16.30;99.90;;;;;;4992024;28;20038;-57
2023/07/14 00:54:02;;;;;;;11.10;3.60;;;16.30;99.90;;;;;;5019833;28;20049;-55
2023/07/14 00:56:29;;;;;;;16.10;3.88;;;16.30;99.90;;;;;;4993159;28;20501;-59
2023/07/14 00:59:05;;;;;;;12.48;4.35;;;16.30;99.90;;;;;;5005616;28;20498;-54
2023/07/14 01:01:32;;;;;;;9.57;4.07;;;16.30;99.90;;;;;;4999942;28;20089;-53
2023/07/14 01:04:12;;;;;;;12.75;4.30;;;16.30;99.90;;;;;;5028573;28;20132;-54
2023/07/14 01:06:39;;;;;;;9.77;4.13;;;16.30;99.90;;;;;;5015718;28;20045;-56
2023/07/14 01:12:21;;;;;;;9.32;4.18;;;16.30;99.90;;;;;;5028353;28;20054;-53
2023/07/14 01:14:49;;;;;;;12.05;4.20;;;16.30;99.90;;;;;;5016036;28;20139;-52
2023/07/14 01:17:24;;;;;;;14.73;4.20;;;16.30;99.90;;;;;;5057091;28;20052;-53
2023/07/14 01:19:51;;;;;;;11.02;4.18;;;16.20;99.90;;;;;;5094526;28;20051;-54
2023/07/14 01:22:19;;;;;;;11.02;4.30;;;16.30;99.90;;;;;;5076321;28;20052;-53
2023/07/14 01:25:03;;;;;;;11.30;4.38;;;16.20;99.90;;;;;;5075922;28;20036;-58
2023/07/14 01:27:31;;;;;;;14.88;4.90;;;16.20;99.90;;;;;;5059071;28;20052;-57
2023/07/14 01:30:16;;;;;;;11.25;4.70;;;16.20;99.90;;;;;;5093948;28;20044;-55
2023/07/14 01:32:48;;;;;;;11.73;4.25;;;16.20;99.90;;;;;;5075851;28;20044;-57
2023/07/14 01:35:16;;;;;;;12.77;5.03;;;16.20;99.90;;;;;;5094187;28;20040;-54
2023/07/14 01:37:43;;;;;;;12.30;3.75;;;16.20;99.90;;;;;;5094273;28;20407;-54
2023/07/14 01:40:13;;;;;;;9.93;4.22;;;16.20;99.90;;;;;;5076145;28;20109;-55
2023/07/14 01:42:40;;;;;;;10.10;4.28;;;16.10;99.90;;;;;;5093866;28;20063;-54
2023/07/14 01:45:07;;;;;;;14.07;4.50;;;16.10;99.90;;;;;;5076024;28;20052;-58
2023/07/14 01:47:36;;;;;;;12.27;4.72;;;16.10;99.90;;;;;;5075881;28;20052;-58
2023/07/14 01:50:15;;;;;;;11.60;4.18;;;16.10;99.90;;;;;;5075785;28;20040;-53
2023/07/14 01:52:42;;;;;;;13.43;5.15;;;16.20;99.90;;;;;;5093500;28;20515;-52
2023/07/14 01:55:10;;;;;;;7.50;3.97;;;16.20;99.90;;;;;;5076033;28;20039;-58
2023/07/14 01:57:37;;;;;;;9.40;4.22;;;16.20;99.90;;;;;;5093771;28;20113;-56
2023/07/14 02:00:04;;;;;;;12.50;4.85;;;16.20;99.90;;;;;;5078484;28;20036;-56
2023/07/14 02:02:40;;;;;;;9.73;4.00;;;16.20;99.90;;;;;;5097899;28;20379;-54
2023/07/14 02:05:08;;;;;;;13.50;4.78;;;16.20;99.90;;;;;;5079588;28;20425;-54
2023/07/14 02:07:37;;;;;;;14.38;4.78;;;16.20;99.90;;;;;;5063003;28;20840;-55
2023/07/14 02:10:05;;;;;;;10.48;4.13;;;16.20;99.90;;;;;;5080124;28;20050;-59
2023/07/14 02:12:32;;;;;;;11.65;4.43;;;16.20;99.90;;;;;;5097136;28;20032;-53
2023/07/14 02:14:59;;;;;;;9.80;4.18;;;16.20;99.90;;;;;;5079560;28;20040;-53
2023/07/14 02:17:27;;;;;;;9.55;4.63;;;16.20;99.90;;;;;;5079845;28;20505;-53
2023/07/14 02:19:54;;;;;;;13.45;4.75;;;16.20;99.90;;;;;;5079614;28;20044;-55
2023/07/14 02:22:25;;;;;;;13.60;4.47;;;16.20;99.90;;;;;;5079022;28;20097;-54
2023/07/14 02:24:58;;;;;;;10.75;4.40;;;16.20;99.90;;;;;;5097129;28;20036;-54
2023/07/14 02:27:37;;;;;;;10.45;4.72;;;16.20;99.90;;;;;;5096886;28;20050;-56
2023/07/14 02:30:13;;;;;;;11.27;4.30;;;16.20;99.90;;;;;;5079078;28;20043;-60
2023/07/14 02:39:04;;;;;;;18.55;6.00;;;16.20;99.90;;;;;;5034360;28;20053;-59
2023/07/14 02:41:32;;;;;;;14.15;4.25;;;16.20;99.90;;;;;;5078447;28;20506;-55
2023/07/14 02:43:59;;;;;;;12.70;4.70;;;16.20;99.90;;;;;;5096601;28;20036;-54
2023/07/14 02:46:29;;;;;;;11.82;4.50;;;16.20;99.90;;;;;;5096994;28;20056;-56
2023/07/14 02:48:56;;;;;;;13.95;4.85;;;16.20;99.90;;;;;;5078589;28;20056;-54
2023/07/14 02:51:23;;;;;;;15.75;4.75;;;16.10;99.90;;;;;;5078147;28;20040;-57
2023/07/14 02:53:54;;;;;;;14.73;4.40;;;16.20;99.90;;;;;;5062294;28;20134;-57
2023/07/14 02:56:24;;;;;;;13.43;4.97;;;16.20;99.90;;;;;;5078632;28;20134;-53
2023/07/14 02:58:52;;;;;;;12.32;4.28;;;16.10;99.90;;;;;;5078569;28;20044;-55
2023/07/14 03:01:21;;;;;;;13.75;4.50;;;16.10;99.90;;;;;;5078586;28;20044;-57
2023/07/14 03:04:10;;;;;;;12.88;4.30;;;16.10;99.90;;;;;;5096340;28;20121;-56
2023/07/14 03:06:38;;;;;;;13.82;4.50;;;16.10;99.90;;;;;;5078435;28;20073;-55
2023/07/14 03:09:22;;;;;;;13.25;4.88;;;16.10;99.90;;;;;;5080743;28;20043;-56
2023/07/14 03:15:46;;;;;;;8.82;4.28;;;16.00;99.90;;;;;;5096371;28;20059;-57
2023/07/14 03:18:14;;;;;;;7.47;4.00;;;16.00;99.90;;;;;;5096838;28;20046;-54
2023/07/14 03:20:41;;;;;;;13.50;4.57;;;16.00;99.90;;;;;;5097068;28;20055;-54
2023/07/14 03:23:08;;;;;;;11.57;4.68;;;16.00;99.90;;;;;;5096265;28;20051;-56
2023/07/14 03:25:36;;;;;;;12.35;4.57;;;16.00;99.90;;;;;;5096451;28;20050;-53
2023/07/14 03:28:09;;;;;;;11.73;4.35;;;16.00;99.90;;;;;;5078608;28;20040;-53
2023/07/14 03:30:36;;;;;;;12.68;4.95;;;16.00;99.90;;;;;;5078452;28;20047;-55
2023/07/14 03:33:03;;;;;;;17.23;4.97;;;16.00;99.90;;;;;;5077569;28;20048;-54
2023/07/14 03:35:32;;;;;;;11.05;5.00;;;16.00;99.90;;;;;;5078000;28;20113;-53
2023/07/14 03:37:59;;;;;;;12.27;4.20;;;16.00;99.90;;;;;;5077665;28;20037;-54
2023/07/14 03:40:30;;;;;;;14.50;5.40;;;16.10;99.90;;;;;;5096309;28;20475;-56
2023/07/14 03:46:42;;;;;;;12.10;4.25;;;16.10;99.90;;;;;;5085790;28;20102;-57
2023/07/14 03:49:10;;;;;;;12.70;4.47;;;16.10;99.90;;;;;;5095917;28;20089;-55
2023/07/14 03:51:38;;;;;;;16.05;5.13;;;16.10;99.90;;;;;;5096073;28;20048;-54
2023/07/14 03:54:05;;;;;;;13.73;4.57;;;16.10;99.90;;;;;;5077119;28;20433;-55
2023/07/14 03:56:33;;;;;;;12.98;4.82;;;16.10;99.90;;;;;;5077494;28;20086;-57
2023/07/14 04:02:40;;;;;;;10.80;4.13;;;16.00;99.90;;;;;;4917973;29;20052;-53
2023/07/14 04:05:12;;;;;;;13.70;4.53;;;16.00;99.90;;;;;;4989443;28;20073;-56
2023/07/14 04:07:42;;;;;;;12.02;4.65;;;16.00;99.90;;;;;;5013496;28;20500;-53
2023/07/14 04:10:09;;;;;;;10.45;4.32;;;16.00;99.90;;;;;;5013765;28;20038;-54
2023/07/14 04:15:48;;;;;;;11.43;4.15;;;16.00;99.90;;;;;;5013954;28;20461;-53
2023/07/14 04:18:16;;;;;;;14.77;5.07;;;16.00;99.90;;;;;;5013808;28;20096;-56
2023/07/14 04:20:46;;;;;;;9.40;4.38;;;16.00;99.90;;;;;;5014141;28;20062;-57
2023/07/14 04:23:17;;;;;;;13.13;4.20;;;16.00;99.90;;;;;;5014363;28;20052;-54
2023/07/14 04:26:36;;;;;;;13.35;4.80;;;16.00;99.90;;;;;;5014603;28;20046;-58
2023/07/14 04:28:47;;;;;;;16.65;4.63;;;16.10;99.90;;;;;;5013832;28;20122;-56
2023/07/14 04:31:14;;;;;;;12.25;4.63;;;16.10;99.90;;;;;;5016254;28;20041;-57
2023/07/14 04:33:44;;;;;;;14.73;4.68;;;16.10;99.90;;;;;;5074033;28;20060;-61
2023/07/14 04:36:12;;;;;;;13.25;4.50;;;16.20;99.90;;;;;;5096837;28;20040;-57
2023/07/14 04:39:25;;;;;;;8.93;4.28;;;16.20;99.90;;;;;;4997141;28;20534;-58
2023/07/14 04:42:31;;;;;;;10.15;4.22;;;16.20;99.90;;;;;;5091029;28;20493;-53
2023/07/14 04:51:41;;;;;;;12.95;4.35;;;16.30;99.90;;;;;;5039945;28;20528;-54
2023/07/14 04:54:12;;;;;;;16.45;4.18;;;16.30;99.90;;;;;;5093979;28;20044;-55
2023/07/14 05:11:13;;;;;;;11.75;4.38;;;16.60;99.90;;;;;;5092381;28;20140;-53
2023/07/14 05:13:40;;;;;;;14.35;4.25;;;16.60;99.90;;;;;;5094002;28;20114;-53
2023/07/14 05:16:14;;;;;;;17.02;4.55;;;16.60;99.90;;;;;;5094578;28;20032;-55
2023/07/14 05:18:46;;;;;;;14.85;5.35;;;16.70;99.90;;;;;;5094370;28;20044;-53
2023/07/14 05:21:16;;;;;;;13.95;4.80;;;16.70;99.90;;;;;;5093943;28;20046;-58
2023/07/14 05:24:14;;;;;;;14.63;4.60;;;16.80;99.90;;;;;;5093687;28;20071;-52
2023/07/14 05:40:45;;;;;;;14.38;4.85;;;17.00;99.90;;;;;;5035980;28;20037;-52
2023/07/14 05:44:10;;;;;;;13.38;4.78;;;17.00;99.90;;;;;;5031764;28;20057;-54
2023/07/14 06:00:51;;;;;;;9.45;3.70;;;17.10;99.90;;;;;;4977752;28;20197;-54
2023/07/14 06:35:24;;;;;;;12.40;4.82;;;17.40;99.90;;;;;;5015353;28;20045;-53
2023/07/14 06:45:30;;;;;;;10.90;3.10;;;17.50;99.90;;;;;;5013616;28;20033;-53
2023/07/14 06:59:12;;;;;;;9.05;3.35;;;17.90;99.90;;;;;;4994859;28;20417;-53
2023/07/14 07:06:03;;;;;;;6.43;2.75;;;18.10;99.90;;;;;;4994554;28;20029;-52
2023/07/14 07:09:27;;;;;;;7.97;2.88;;;18.20;99.90;;;;;;4995122;28;20381;-53
2023/07/14 07:12:46;;;;;;;7.80;3.17;;;18.30;99.90;;;;;;4995048;28;20128;-58
2023/07/14 07:44:37;;;;;;;6.78;2.95;;;18.40;99.90;;;;;;5073677;28;20107;-53
2023/07/14 07:47:13;;;;;;;7.18;3.00;;;18.50;99.90;;;;;;5073759;28;20044;-54
2023/07/14 07:49:57;;;;;;;7.40;3.30;;;18.40;99.90;;;;;;5073861;28;20097;-53
2023/07/14 07:53:00;;;;;;;6.72;2.65;;;18.40;99.90;;;;;;5070737;28;20132;-52
2023/07/14 07:55:31;;;;;;;8.07;2.80;;;18.40;99.90;;;;;;5073932;28;20040;-54
2023/07/14 07:58:51;;;;;;;;;;;;;;;;;;;;;
2023/07/14 09:21:14;;;;;;;7.35;3.45;;;18.20;99.90;;;;;;5014017;28;20037;-55
2023/07/14 09:35:09;;;;;;;7.47;3.25;;;18.30;99.90;;;;;;4934978;29;20086;-53
2023/07/14 10:10:19;;;;;;;8.93;4.68;;;18.30;99.90;;;;;;4831142;29;20414;-54
2023/07/14 10:17:07;;;;;;;5.72;2.97;;;18.40;99.90;;;;;;4750769;30;20031;-55
2023/07/14 11:17:10;;;;;;;10.20;4.40;;;19.30;99.90;;;;;;4879885;29;20470;-56
2023/07/14 11:55:56;;;;;;;10.02;5.07;;;19.60;99.90;;;;;;4927149;29;20087;-55
2023/07/14 15:25:32;;;;;;;5.43;2.67;;;21.20;98.30;;;;;;4875934;29;20496;-56
2023/07/14 17:17:59;;;;;;;9.65;4.63;;;19.30;99.90;;;;;;5163197;23;20056;-58
2023/07/14 18:02:40;;;;;;;3.80;1.80;;;18.50;99.90;;;;;;4680085;30;20050;-60
2023/07/14 18:20:33;;;;;;;4.47;2.28;;;18.40;99.90;;;;;;4729210;30;20059;-58
2023/07/14 18:23:21;;;;;;;8.52;3.25;;;18.50;99.90;;;;;;4742467;30;20066;-60
2023/07/14 18:26:24;;;;;;;7.28;3.17;;;18.50;99.90;;;;;;4711533;30;20061;-57
2023/07/14 18:29:16;;;;;;;6.47;2.75;;;18.50;99.90;;;;;;4770826;29;20404;-55
2023/07/14 18:31:48;;;;;;;8.30;3.25;;;18.50;99.90;;;;;;4807118;29;20539;-57
2023/07/14 18:35:09;;;;;;;5.80;3.03;;;18.50;99.90;;;;;;4798516;29;20100;-59
2023/07/14 19:06:55;;;;;;;7.57;3.22;;;18.60;99.90;;;;;;4864157;29;20045;-59
2023/07/14 19:17:04;;;;;;;7.75;2.35;;;18.60;99.90;;;;;;4843334;29;20049;-56
2023/07/14 19:20:41;;;;;;;7.03;2.22;;;18.50;99.90;;;;;;4787536;29;20428;-55
2023/07/14 19:40:04;;;;;;;6.85;2.08;;;18.70;99.90;;;;;;4897934;29;20087;-52
2023/07/14 20:10:55;;;;;;;7.32;2.65;;;18.90;99.90;;;;;;4900381;29;20075;-52
2023/07/14 20:17:46;;;;;;;4.90;2.03;;;18.90;99.90;;;;;;4769730;30;20104;-56
2023/07/14 20:34:39;;;;;;;6.95;2.00;;;18.80;99.90;;;;;;4752317;30;20074;-56
2023/07/14 21:41:53;;;;;;;4.97;1.90;;;18.40;99.90;;;;;;4823253;29;20178;-53
2023/07/14 21:48:18;;;;;;;7.68;2.20;;;18.30;99.90;;;;;;4787314;30;20214;-52
2023/07/14 21:51:15;;;;;;;5.38;2.28;;;18.40;99.90;;;;;;4834023;29;20143;-51
2023/07/14 21:53:42;;;;;;;4.88;2.10;;;18.30;99.90;;;;;;4841053;29;20068;-52
2023/07/14 21:56:10;;;;;;;4.57;1.83;;;18.30;99.90;;;;;;4841243;29;20622;-53
2023/07/14 21:59:15;;;;;;;6.90;1.95;;;18.30;99.90;;;;;;4891748;29;20132;-52
2023/07/14 22:09:25;;;;;;;5.00;1.90;;;18.20;99.90;;;;;;4898603;29;20077;-56
2023/07/14 22:12:53;;;;;;;6.68;2.25;;;18.20;99.90;;;;;;4822765;29;20423;-58
2023/07/14 22:19:33;;;;;;;6.85;2.22;;;18.10;99.90;;;;;;4812749;29;20043;-53
2023/07/14 22:30:31;;;;;;;;;;;;;;;;;;;;;
2023/07/14 22:37:06;;;;;;;5.72;1.73;;;17.80;99.90;;;;;;4754210;30;20031;-53
2023/07/14 22:43:00;;;;;;;9.73;1.85;;;17.60;99.90;;;;;;4753720;30;20052;-58
2023/07/14 23:46:13;;;;;;;9.95;1.90;;;16.60;99.90;;;;;;4842734;29;20371;-53
